sensor_id;sensor_type;location;lat;lon;timestamp;pressure;altitude;pressure_sealevel;temperature;humidity
34500;BME280;20745;50.882;6.962;2022-12-18T09:08:37;102165.31;;;-2.88;100.00
34500;BME280;20745;50.882;6.962;2022-12-18T09:11:27;102166.13;;;-2.86;100.00
34500;BME280;20745;50.882;6.962;2022-12-18T09:14:15;102161.50;;;-2.81;100.00
34500;BME280;20745;50.882;6.962;2022-12-18T09:17:02;102168.25;;;-2.74;100.00
34500;BME280;20745;50.882;6.962;2022-12-18T09:19:55;102172.03;;;-2.79;100.00
34500;BME280;20745;50.882;6.962;2022-12-18T09:22:44;102162.97;;;-2.74;100.00
34500;BME280;20745;50.882;6.962;2022-12-18T09:25:31;102170.84;;;-2.72;100.00
34500;BME280;20745;50.882;6.962;2022-12-18T09:28:22;102148.72;;;-2.70;100.00
34500;BME280;20745;50.882;6.962;2022-12-18T09:31:10;102154.38;;;-2.57;100.00
34500;BME280;20745;50.882;6.962;2022-12-18T09:33:58;102157.72;;;-2.54;100.00
34500;BME280;20745;50.882;6.962;2022-12-18T09:36:44;102095.97;;;-2.73;100.00
34500;BME280;20745;50.882;6.962;2022-12-18T09:39:32;102132.53;;;-2.42;100.00
34500;BME280;20745;50.882;6.962;2022-12-18T09:42:20;102134.00;;;-2.35;100.00
34500;BME280;20745;50.882;6.962;2022-12-18T09:45:12;102132.28;;;-2.36;100.00
34500;BME280;20745;50.882;6.962;2022-12-18T09:48:20;102127.53;;;-2.28;100.00
34500;BME280;20745;50.882;6.962;2022-12-18T09:51:22;102118.53;;;-2.24;100.00
34500;BME280;20745;50.882;6.962;2022-12-18T10:48:04;102067.84;;;-1.04;100.00
34500;BME280;20745;50.882;6.962;2022-12-18T10:50:54;102075.44;;;-0.96;100.00
34500;BME280;20745;50.882;6.962;2022-12-18T10:54:14;102074.50;;;-0.95;100.00
34500;BME280;20745;50.882;6.962;2022-12-18T10:57:28;102060.63;;;-0.83;100.00
34500;BME280;20745;50.882;6.962;2022-12-18T11:00:20;102054.75;;;-0.90;100.00
34500;BME280;20745;50.882;6.962;2022-12-18T11:03:58;102051.66;;;-0.81;100.00
34500;BME280;20745;50.882;6.962;2022-12-18T11:06:15;102047.84;;;-0.75;100.00
34500;BME280;20745;50.882;6.962;2022-12-18T11:09:04;102044.06;;;-0.71;100.00
34500;BME280;20745;50.882;6.962;2022-12-18T11:12:00;102041.03;;;-0.64;100.00
34500;BME280;20745;50.882;6.962;2022-12-18T11:14:48;102052.03;;;-0.54;100.00
34500;BME280;20745;50.882;6.962;2022-12-18T11:17:36;102047.59;;;-0.54;100.00
34500;BME280;20745;50.882;6.962;2022-12-18T11:20:34;102053.59;;;-0.50;100.00
34500;BME280;20745;50.882;6.962;2022-12-18T11:23:23;102052.81;;;-0.52;100.00
34500;BME280;20745;50.882;6.962;2022-12-18T11:26:10;102047.44;;;-0.51;100.00
34500;BME280;20745;50.882;6.962;2022-12-18T11:29:10;102050.38;;;-0.40;100.00
34500;BME280;20745;50.882;6.962;2022-12-18T11:38:04;102024.00;;;-0.43;100.00
34500;BME280;20745;50.882;6.962;2022-12-18T11:40:55;102023.84;;;-0.40;100.00
34500;BME280;20745;50.882;6.962;2022-12-18T11:43:45;102031.72;;;-0.38;100.00
34500;BME280;20745;50.882;6.962;2022-12-18T11:46:36;102021.97;;;-0.38;100.00
34500;BME280;20745;50.882;6.962;2022-12-18T11:49:32;102019.78;;;-0.30;100.00
34500;BME280;20745;50.882;6.962;2022-12-18T11:52:25;102018.75;;;-0.27;100.00
34500;BME280;20745;50.882;6.962;2022-12-18T11:55:15;102007.06;;;-0.23;100.00
34500;BME280;20745;50.882;6.962;2022-12-18T12:33:39;101965.19;;;-0.03;100.00
34500;BME280;20745;50.882;6.962;2022-12-18T12:39:26;101956.97;;;-0.14;100.00
34500;BME280;20745;50.882;6.962;2022-12-18T12:48:40;101966.53;;;-0.11;100.00
34500;BME280;20745;50.882;6.962;2022-12-18T12:51:32;101966.22;;;-0.05;100.00
34500;BME280;20745;50.882;6.962;2022-12-18T12:54:21;101962.09;;;-0.11;100.00
34500;BME280;20745;50.882;6.962;2022-12-18T12:57:10;101966.47;;;-0.10;100.00
34500;BME280;20745;50.882;6.962;2022-12-18T13:00:09;101945.22;;;-0.10;100.00
34500;BME280;20745;50.882;6.962;2022-12-18T13:03:11;101955.09;;;-0.12;100.00
34500;BME280;20745;50.882;6.962;2022-12-18T13:06:04;101949.34;;;-0.04;100.00
34500;BME280;20745;50.882;6.962;2022-12-18T13:08:57;101951.97;;;-0.04;100.00
34500;BME280;20745;50.882;6.962;2022-12-18T13:11:45;101955.44;;;-0.02;100.00
34500;BME280;20745;50.882;6.962;2022-12-18T13:14:52;101963.31;;;-0.01;100.00
34500;BME280;20745;50.882;6.962;2022-12-18T13:17:39;101957.13;;;-0.01;100.00
34500;BME280;20745;50.882;6.962;2022-12-18T13:20:34;101955.19;;;0.03;100.00
34500;BME280;20745;50.882;6.962;2022-12-18T13:29:03;101935.56;;;0.05;100.00
34500;BME280;20745;50.882;6.962;2022-12-18T13:37:57;101935.88;;;-0.01;100.00
34500;BME280;20745;50.882;6.962;2022-12-18T13:46:30;101935.88;;;-0.01;100.00
34500;BME280;20745;50.882;6.962;2022-12-18T13:49:33;101925.09;;;0.02;100.00
34500;BME280;20745;50.882;6.962;2022-12-18T13:52:33;101926.63;;;0.06;100.00
34500;BME280;20745;50.882;6.962;2022-12-18T13:55:21;101929.91;;;0.11;100.00
34500;BME280;20745;50.882;6.962;2022-12-18T13:58:11;101920.22;;;0.10;100.00
34500;BME280;20745;50.882;6.962;2022-12-18T14:00:58;101923.06;;;0.07;100.00
34500;BME280;20745;50.882;6.962;2022-12-18T14:03:45;101912.69;;;0.03;100.00
34500;BME280;20745;50.882;6.962;2022-12-18T14:06:34;101910.28;;;-0.02;100.00
34500;BME280;20745;50.882;6.962;2022-12-18T14:09:26;101901.44;;;-0.03;100.00
34500;BME280;20745;50.882;6.962;2022-12-18T14:12:16;101897.88;;;-0.02;100.00
34500;BME280;20745;50.882;6.962;2022-12-18T14:15:24;101910.19;;;-0.01;100.00
34500;BME280;20745;50.882;6.962;2022-12-18T14:21:04;101902.56;;;0.09;100.00
34500;BME280;20745;50.882;6.962;2022-12-18T14:26:57;101897.00;;;-0.02;100.00
34500;BME280;20745;50.882;6.962;2022-12-18T14:29:58;101897.00;;;-0.02;100.00
34500;BME280;20745;50.882;6.962;2022-12-18T14:32:58;101899.41;;;0.03;100.00
34500;BME280;20745;50.882;6.962;2022-12-18T14:35:53;101895.22;;;-0.02;100.00
34500;BME280;20745;50.882;6.962;2022-12-18T14:38:40;101893.41;;;-0.01;100.00
34500;BME280;20745;50.882;6.962;2022-12-18T14:41:26;101884.69;;;-0.03;100.00
34500;BME280;20745;50.882;6.962;2022-12-18T14:44:15;101878.59;;;-0.05;100.00
34500;BME280;20745;50.882;6.962;2022-12-18T14:47:01;101881.25;;;-0.05;100.00
34500;BME280;20745;50.882;6.962;2022-12-18T14:49:48;101877.63;;;-0.04;100.00
34500;BME280;20745;50.882;6.962;2022-12-18T14:52:35;101876.97;;;-0.08;100.00
34500;BME280;20745;50.882;6.962;2022-12-18T14:55:21;101876.44;;;-0.14;100.00
34500;BME280;20745;50.882;6.962;2022-12-18T14:58:10;101880.53;;;-0.09;100.00
34500;BME280;20745;50.882;6.962;2022-12-18T15:01:00;101876.09;;;-0.08;100.00
34500;BME280;20745;50.882;6.962;2022-12-18T15:03:47;101870.78;;;-0.08;100.00
34500;BME280;20745;50.882;6.962;2022-12-18T15:06:35;101863.78;;;-0.09;100.00
34500;BME280;20745;50.882;6.962;2022-12-18T15:09:23;101869.09;;;-0.09;100.00
34500;BME280;20745;50.882;6.962;2022-12-18T15:12:31;101862.91;;;-0.10;100.00
34500;BME280;20745;50.882;6.962;2022-12-18T15:18:29;101853.31;;;-0.12;100.00
34500;BME280;20745;50.882;6.962;2022-12-18T15:21:17;101851.78;;;-0.16;100.00
34500;BME280;20745;50.882;6.962;2022-12-18T15:24:13;101850.84;;;-0.15;100.00
34500;BME280;20745;50.882;6.962;2022-12-18T15:27:03;101856.84;;;-0.12;100.00
34500;BME280;20745;50.882;6.962;2022-12-18T15:32:52;101865.97;;;-0.17;100.00
34500;BME280;20745;50.882;6.962;2022-12-18T15:35:39;101863.94;;;-0.12;100.00
34500;BME280;20745;50.882;6.962;2022-12-18T15:38:32;101870.38;;;-0.16;100.00
34500;BME280;20745;50.882;6.962;2022-12-18T15:41:20;101858.81;;;-0.15;100.00
34500;BME280;20745;50.882;6.962;2022-12-18T15:44:23;101856.16;;;-0.15;100.00
34500;BME280;20745;50.882;6.962;2022-12-18T15:47:11;101855.72;;;-0.23;100.00
34500;BME280;20745;50.882;6.962;2022-12-18T15:49:58;101854.94;;;-0.25;100.00
34500;BME280;20745;50.882;6.962;2022-12-18T15:52:45;101850.59;;;-0.26;100.00
34500;BME280;20745;50.882;6.962;2022-12-18T15:55:33;101841.84;;;-0.28;100.00
34500;BME280;20745;50.882;6.962;2022-12-18T15:58:46;101837.31;;;-0.26;100.00
34500;BME280;20745;50.882;6.962;2022-12-18T16:01:33;101840.91;;;-0.27;100.00
34500;BME280;20745;50.882;6.962;2022-12-18T16:04:27;101846.50;;;-0.32;100.00
34500;BME280;20745;50.882;6.962;2022-12-18T16:07:14;101846.22;;;-0.27;100.00
34500;BME280;20745;50.882;6.962;2022-12-18T16:10:08;101852.97;;;-0.37;100.00
34500;BME280;20745;50.882;6.962;2022-12-18T16:12:55;101836.38;;;-0.41;100.00
34500;BME280;20745;50.882;6.962;2022-12-18T16:15:42;101846.38;;;-0.46;100.00
34500;BME280;20745;50.882;6.962;2022-12-18T16:18:29;101846.19;;;-0.43;100.00
34500;BME280;20745;50.882;6.962;2022-12-18T16:21:16;101849.88;;;-0.45;100.00
34500;BME280;20745;50.882;6.962;2022-12-18T16:24:03;101836.53;;;-0.44;100.00
34500;BME280;20745;50.882;6.962;2022-12-18T16:27:00;101836.63;;;-0.45;100.00
34500;BME280;20745;50.882;6.962;2022-12-18T16:29:46;101826.78;;;-0.43;100.00
34500;BME280;20745;50.882;6.962;2022-12-18T16:32:36;101835.66;;;-0.44;100.00
34500;BME280;20745;50.882;6.962;2022-12-18T16:35:23;101831.56;;;-0.50;100.00
34500;BME280;20745;50.882;6.962;2022-12-18T16:38:10;101834.91;;;-0.46;100.00
34500;BME280;20745;50.882;6.962;2022-12-18T16:40:57;101836.44;;;-0.42;100.00
34500;BME280;20745;50.882;6.962;2022-12-18T16:44:02;101837.56;;;-0.46;100.00
34500;BME280;20745;50.882;6.962;2022-12-18T16:46:49;101838.31;;;-0.44;100.00
34500;BME280;20745;50.882;6.962;2022-12-18T16:49:39;101835.00;;;-0.48;100.00
34500;BME280;20745;50.882;6.962;2022-12-18T16:52:28;101837.66;;;-0.48;100.00
34500;BME280;20745;50.882;6.962;2022-12-18T16:55:15;101830.44;;;-0.46;100.00
34500;BME280;20745;50.882;6.962;2022-12-18T16:58:02;101818.47;;;-0.53;100.00
34500;BME280;20745;50.882;6.962;2022-12-18T17:00:49;101801.63;;;-0.52;100.00
34500;BME280;20745;50.882;6.962;2022-12-18T17:03:36;101819.91;;;-0.47;100.00
34500;BME280;20745;50.882;6.962;2022-12-18T17:06:24;101825.94;;;-0.44;100.00
34500;BME280;20745;50.882;6.962;2022-12-18T17:09:12;101832.09;;;-0.43;100.00
34500;BME280;20745;50.882;6.962;2022-12-18T17:12:00;101835.59;;;-0.43;100.00
34500;BME280;20745;50.882;6.962;2022-12-18T17:14:50;101829.16;;;-0.39;100.00
34500;BME280;20745;50.882;6.962;2022-12-18T17:17:36;101830.72;;;-0.35;100.00
34500;BME280;20745;50.882;6.962;2022-12-18T17:20:23;101837.03;;;-0.37;100.00
34500;BME280;20745;50.882;6.962;2022-12-18T17:23:10;101840.81;;;-0.41;100.00
34500;BME280;20745;50.882;6.962;2022-12-18T17:25:57;101840.91;;;-0.43;100.00
34500;BME280;20745;50.882;6.962;2022-12-18T17:28:44;101840.13;;;-0.45;100.00
34500;BME280;20745;50.882;6.962;2022-12-18T17:31:31;101827.13;;;-0.49;100.00
34500;BME280;20745;50.882;6.962;2022-12-18T17:34:18;101835.66;;;-0.44;100.00
34500;BME280;20745;50.882;6.962;2022-12-18T17:37:07;101820.94;;;-0.50;100.00
34500;BME280;20745;50.882;6.962;2022-12-18T17:39:54;101823.53;;;-0.48;100.00
34500;BME280;20745;50.882;6.962;2022-12-18T17:42:41;101826.16;;;-0.48;100.00
34500;BME280;20745;50.882;6.962;2022-12-18T17:45:29;101823.84;;;-0.54;100.00
34500;BME280;20745;50.882;6.962;2022-12-18T17:48:16;101820.94;;;-0.50;100.00
34500;BME280;20745;50.882;6.962;2022-12-18T17:51:08;101814.09;;;-0.54;100.00
34500;BME280;20745;50.882;6.962;2022-12-18T17:53:56;101818.53;;;-0.54;100.00
34500;BME280;20745;50.882;6.962;2022-12-18T17:56:45;101816.50;;;-0.49;100.00
34500;BME280;20745;50.882;6.962;2022-12-18T17:59:32;101832.16;;;-0.14;100.00
34500;BME280;20745;50.882;6.962;2022-12-18T18:02:19;101829.31;;;0.05;100.00
34500;BME280;20745;50.882;6.962;2022-12-18T18:05:10;101820.94;;;-0.03;100.00
34500;BME280;20745;50.882;6.962;2022-12-18T18:08:03;101810.22;;;-0.17;100.00
34500;BME280;20745;50.882;6.962;2022-12-18T18:11:08;101821.66;;;-0.31;100.00
34500;BME280;20745;50.882;6.962;2022-12-18T18:14:17;101809.75;;;-0.39;100.00
34500;BME280;20745;50.882;6.962;2022-12-18T18:17:04;101822.16;;;-0.55;100.00
34500;BME280;20745;50.882;6.962;2022-12-18T18:19:51;101840.97;;;-0.60;100.00
34500;BME280;20745;50.882;6.962;2022-12-18T18:22:38;101823.84;;;-0.54;100.00
34500;BME280;20745;50.882;6.962;2022-12-18T18:25:25;101821.19;;;-0.54;100.00
34500;BME280;20745;50.882;6.962;2022-12-18T18:28:12;101811.63;;;-0.57;100.00
34500;BME280;20745;50.882;6.962;2022-12-18T18:31:07;101809.66;;;-0.53;100.00
34500;BME280;20745;50.882;6.962;2022-12-18T18:33:54;101807.94;;;-0.54;100.00
34500;BME280;20745;50.882;6.962;2022-12-18T18:36:44;101818.88;;;-0.60;100.00
34500;BME280;20745;50.882;6.962;2022-12-18T18:39:41;101813.56;;;-0.60;100.00
34500;BME280;20745;50.882;6.962;2022-12-18T18:42:28;101814.09;;;-0.54;100.00
34500;BME280;20745;50.882;6.962;2022-12-18T18:45:15;101826.34;;;-0.51;100.00
34500;BME280;20745;50.882;6.962;2022-12-18T18:48:05;101820.69;;;-0.45;100.00
34500;BME280;20745;50.882;6.962;2022-12-18T18:50:59;101832.44;;;-0.49;100.00
34500;BME280;20745;50.882;6.962;2022-12-18T18:53:46;101827.72;;;-0.44;100.00
34500;BME280;20745;50.882;6.962;2022-12-18T18:56:33;101824.88;;;-0.41;100.00
34500;BME280;20745;50.882;6.962;2022-12-18T18:59:40;101814.09;;;-0.38;100.00
34500;BME280;20745;50.882;6.962;2022-12-18T19:02:27;101815.63;;;-0.34;100.00
34500;BME280;20745;50.882;6.962;2022-12-18T19:05:17;101811.28;;;-0.35;100.00
34500;BME280;20745;50.882;6.962;2022-12-18T19:08:04;101811.69;;;-0.27;100.00
34500;BME280;20745;50.882;6.962;2022-12-18T19:10:57;101806.13;;;-0.23;100.00
34500;BME280;20745;50.882;6.962;2022-12-18T19:13:44;101794.75;;;-0.25;100.00
34500;BME280;20745;50.882;6.962;2022-12-18T19:16:31;101801.78;;;-0.24;100.00
34500;BME280;20745;50.882;6.962;2022-12-18T19:19:18;101795.44;;;-0.21;100.00
34500;BME280;20745;50.882;6.962;2022-12-18T19:22:08;101794.69;;;-0.23;100.00
34500;BME280;20745;50.882;6.962;2022-12-18T19:24:58;101804.44;;;-0.24;100.00
34500;BME280;20745;50.882;6.962;2022-12-18T19:27:47;101801.69;;;-0.22;100.00
34500;BME280;20745;50.882;6.962;2022-12-18T19:30:38;101804.75;;;-0.14;100.00
34500;BME280;20745;50.882;6.962;2022-12-18T19:33:33;101796.97;;;-0.17;100.00
34500;BME280;20745;50.882;6.962;2022-12-18T19:36:30;101796.53;;;-0.10;100.00
34500;BME280;20745;50.882;6.962;2022-12-18T19:39:27;101803.06;;;-0.15;100.00
34500;BME280;20745;50.882;6.962;2022-12-18T19:42:19;101798.88;;;-0.19;100.00
34500;BME280;20745;50.882;6.962;2022-12-18T19:45:15;101798.09;;;-0.21;100.00
34500;BME280;20745;50.882;6.962;2022-12-18T19:48:13;101809.06;;;-0.12;100.00
34500;BME280;20745;50.882;6.962;2022-12-18T19:54:41;101799.28;;;-0.11;100.00
34500;BME280;20745;50.882;6.962;2022-12-18T19:57:30;101792.16;;;-0.11;100.00
34500;BME280;20745;50.882;6.962;2022-12-18T20:00:18;101790.47;;;-0.12;100.00
34500;BME280;20745;50.882;6.962;2022-12-18T20:03:05;101787.81;;;-0.12;100.00
34500;BME280;20745;50.882;6.962;2022-12-18T20:06:13;101790.25;;;-0.09;100.00
34500;BME280;20745;50.882;6.962;2022-12-18T20:09:04;101781.47;;;-0.09;100.00
34500;BME280;20745;50.882;6.962;2022-12-18T20:11:59;101785.81;;;-0.08;100.00
34500;BME280;20745;50.882;6.962;2022-12-18T20:14:45;101798.66;;;-0.01;100.00
34500;BME280;20745;50.882;6.962;2022-12-18T20:17:35;101786.44;;;-0.03;100.00
34500;BME280;20745;50.882;6.962;2022-12-18T20:20:25;101794.09;;;0.01;100.00
34500;BME280;20745;50.882;6.962;2022-12-18T20:23:12;101794.22;;;0.00;100.00
34500;BME280;20745;50.882;6.962;2022-12-18T20:25:59;101785.97;;;0.04;100.00
34500;BME280;20745;50.882;6.962;2022-12-18T20:28:46;101801.72;;;0.08;100.00
34500;BME280;20745;50.882;6.962;2022-12-18T20:31:33;101783.22;;;0.06;100.00
34500;BME280;20745;50.882;6.962;2022-12-18T20:34:20;101784.00;;;0.08;100.00
34500;BME280;20745;50.882;6.962;2022-12-18T20:37:10;101792.53;;;0.13;100.00
34500;BME280;20745;50.882;6.962;2022-12-18T20:39:57;101797.75;;;0.15;100.00
34500;BME280;20745;50.882;6.962;2022-12-18T20:42:45;101801.28;;;0.15;100.00
34500;BME280;20745;50.882;6.962;2022-12-18T20:45:32;101799.31;;;0.19;100.00
34500;BME280;20745;50.882;6.962;2022-12-18T20:48:24;101795.97;;;0.15;100.00
34500;BME280;20745;50.882;6.962;2022-12-18T20:51:15;101795.63;;;0.21;100.00
34500;BME280;20745;50.882;6.962;2022-12-18T20:54:06;101810.69;;;0.21;100.00
34500;BME280;20745;50.882;6.962;2022-12-18T20:56:57;101813.19;;;0.24;100.00
34500;BME280;20745;50.882;6.962;2022-12-18T20:59:44;101821.22;;;0.22;100.00
34500;BME280;20745;50.882;6.962;2022-12-18T21:02:34;101801.50;;;0.26;100.00
34500;BME280;20745;50.882;6.962;2022-12-18T21:05:22;101814.03;;;0.24;100.00
34500;BME280;20745;50.882;6.962;2022-12-18T21:08:27;101792.78;;;0.24;100.00
34500;BME280;20745;50.882;6.962;2022-12-18T21:14:30;101812.31;;;0.23;100.00
34500;BME280;20745;50.882;6.962;2022-12-18T21:17:28;101798.94;;;0.25;100.00
34500;BME280;20745;50.882;6.962;2022-12-18T21:20:21;101787.66;;;0.21;100.00
34500;BME280;20745;50.882;6.962;2022-12-18T21:23:17;101786.13;;;0.17;100.00
34500;BME280;20745;50.882;6.962;2022-12-18T21:26:24;101786.59;;;0.24;100.00
34500;BME280;20745;50.882;6.962;2022-12-18T21:29:15;101783.09;;;0.23;100.00
34500;BME280;20745;50.882;6.962;2022-12-18T21:32:14;101771.81;;;0.20;100.00
34500;BME280;20745;50.882;6.962;2022-12-18T21:35:01;101787.66;;;0.21;100.00
34500;BME280;20745;50.882;6.962;2022-12-18T21:40:51;101782.91;;;0.26;100.00
34500;BME280;20745;50.882;6.962;2022-12-18T21:43:38;101786.34;;;0.28;100.00
34500;BME280;20745;50.882;6.962;2022-12-18T21:46:45;101783.69;;;0.28;100.00
34500;BME280;20745;50.882;6.962;2022-12-18T21:49:40;101778.19;;;0.31;100.00
34500;BME280;20745;50.882;6.962;2022-12-18T21:52:29;101783.16;;;0.37;100.00
34500;BME280;20745;50.882;6.962;2022-12-18T21:55:18;101783.25;;;0.36;100.00
34500;BME280;20745;50.882;6.962;2022-12-18T21:58:04;101781.25;;;0.39;100.00
34500;BME280;20745;50.882;6.962;2022-12-18T22:00:51;101773.28;;;0.39;100.00
34500;BME280;20745;50.882;6.962;2022-12-18T22:03:38;101763.22;;;0.44;100.00
34500;BME280;20745;50.882;6.962;2022-12-18T22:06:25;101760.50;;;0.46;100.00
34500;BME280;20745;50.882;6.962;2022-12-18T22:09:13;101758.09;;;0.41;100.00
34500;BME280;20745;50.882;6.962;2022-12-18T22:12:00;101758.19;;;0.40;100.00
34500;BME280;20745;50.882;6.962;2022-12-18T22:14:47;101744.22;;;0.36;100.00
34500;BME280;20745;50.882;6.962;2022-12-18T22:17:34;101741.38;;;0.39;100.00
34500;BME280;20745;50.882;6.962;2022-12-18T22:20:21;101737.03;;;0.38;100.00
34500;BME280;20745;50.882;6.962;2022-12-18T22:23:07;101716.81;;;0.36;100.00
34500;BME280;20745;50.882;6.962;2022-12-18T22:25:54;101721.00;;;0.40;100.00
34500;BME280;20745;50.882;6.962;2022-12-18T22:28:41;101724.53;;;0.40;100.00
34500;BME280;20745;50.882;6.962;2022-12-18T22:31:46;101716.25;;;0.45;100.00
34500;BME280;20745;50.882;6.962;2022-12-18T22:34:33;101720.34;;;0.50;100.00
34500;BME280;20745;50.882;6.962;2022-12-18T22:37:22;101715.03;;;0.50;100.00
34500;BME280;20745;50.882;6.962;2022-12-18T22:40:10;101705.25;;;0.51;100.00
34500;BME280;20745;50.882;6.962;2022-12-18T22:43:11;101706.09;;;0.51;100.00
34500;BME280;20745;50.882;6.962;2022-12-18T22:45:58;101698.88;;;0.53;100.00
34500;BME280;20745;50.882;6.962;2022-12-18T22:48:45;101702.50;;;0.52;100.00
34500;BME280;20745;50.882;6.962;2022-12-18T22:51:32;101698.13;;;0.51;100.00
34500;BME280;20745;50.882;6.962;2022-12-18T22:54:20;101691.00;;;0.52;100.00
34500;BME280;20745;50.882;6.962;2022-12-18T22:57:07;101702.50;;;0.52;100.00
34500;BME280;20745;50.882;6.962;2022-12-18T22:59:54;101698.50;;;0.59;100.00
34500;BME280;20745;50.882;6.962;2022-12-18T23:02:41;101700.41;;;0.57;100.00
34500;BME280;20745;50.882;6.962;2022-12-18T23:05:28;101695.09;;;0.57;100.00
34500;BME280;20745;50.882;6.962;2022-12-18T23:08:15;101691.50;;;0.58;100.00
34500;BME280;20745;50.882;6.962;2022-12-18T23:11:03;101693.00;;;0.62;100.00
34500;BME280;20745;50.882;6.962;2022-12-18T23:13:50;101693.59;;;0.67;100.00
34500;BME280;20745;50.882;6.962;2022-12-18T23:16:40;101687.31;;;0.68;100.00
34500;BME280;20745;50.882;6.962;2022-12-18T23:19:28;101685.19;;;0.73;100.00
34500;BME280;20745;50.882;6.962;2022-12-18T23:22:16;101674.56;;;0.73;100.00
34500;BME280;20745;50.882;6.962;2022-12-18T23:25:03;101668.31;;;0.74;100.00
34500;BME280;20745;50.882;6.962;2022-12-18T23:27:49;101659.88;;;0.82;100.00
34500;BME280;20745;50.882;6.962;2022-12-18T23:30:36;101653.78;;;0.80;100.00
34500;BME280;20745;50.882;6.962;2022-12-18T23:33:23;101650.84;;;0.84;100.00
34500;BME280;20745;50.882;6.962;2022-12-18T23:36:10;101652.53;;;0.85;100.00
34500;BME280;20745;50.882;6.962;2022-12-18T23:38:58;101640.00;;;0.87;100.00
34500;BME280;20745;50.882;6.962;2022-12-18T23:41:45;101630.88;;;0.91;100.00
34500;BME280;20745;50.882;6.962;2022-12-18T23:44:31;101626.81;;;0.86;100.00
34500;BME280;20745;50.882;6.962;2022-12-18T23:47:18;101634.50;;;0.90;100.00
34500;BME280;20745;50.882;6.962;2022-12-18T23:50:05;101623.00;;;0.90;100.00
34500;BME280;20745;50.882;6.962;2022-12-18T23:52:52;101621.22;;;0.90;100.00
34500;BME280;20745;50.882;6.962;2022-12-18T23:55:40;101615.78;;;0.92;100.00
34500;BME280;20745;50.882;6.962;2022-12-18T23:58:27;101613.00;;;0.93;100.00
